createdAt,value
2023-08-05T00:01:41.829Z,15.53
2023-08-05T00:04:08.497Z,15.51
2023-08-05T00:06:35.045Z,15.57
2023-08-05T00:09:01.555Z,15.60
2023-08-05T00:11:28.138Z,15.45
2023-08-05T00:13:54.587Z,15.36
2023-08-05T00:16:21.098Z,15.14
2023-08-05T00:18:47.595Z,15.11
2023-08-05T00:21:14.552Z,15.16
2023-08-05T00:23:41.113Z,15.28
2023-08-05T00:26:07.620Z,15.30
2023-08-05T00:28:34.075Z,15.25
2023-08-05T00:31:00.592Z,15.14
2023-08-05T00:33:27.169Z,15.07
2023-08-05T00:35:53.756Z,14.93
2023-08-05T00:38:21.209Z,14.75
2023-08-05T00:40:47.749Z,14.80
2023-08-05T00:43:14.277Z,14.90
2023-08-05T00:45:40.883Z,14.95
2023-08-05T00:48:07.664Z,14.76
2023-08-05T00:50:35.114Z,14.79
2023-08-05T00:53:04.773Z,14.69
2023-08-05T00:55:33.524Z,14.60
2023-08-05T00:58:00.315Z,14.59
2023-08-05T01:00:26.866Z,14.63
2023-08-05T01:02:53.982Z,14.55
2023-08-05T01:05:21.022Z,14.58
2023-08-05T01:07:48.355Z,14.54
2023-08-05T01:10:15.135Z,14.49
2023-08-05T01:12:43.056Z,14.40
2023-08-05T01:15:09.857Z,14.47
2023-08-05T01:17:36.708Z,14.58
2023-08-05T01:20:05.420Z,14.54
2023-08-05T01:22:41.735Z,14.63
2023-08-05T01:25:25.597Z,14.48
2023-08-05T01:27:53.551Z,14.45
2023-08-05T01:30:21.351Z,14.53
2023-08-05T01:32:48.647Z,14.45
2023-08-05T01:35:15.215Z,14.41
2023-08-05T01:37:41.720Z,14.41
2023-08-05T01:40:09.205Z,14.32
2023-08-05T01:42:35.697Z,14.22
2023-08-05T01:45:02.205Z,14.15
2023-08-05T01:47:28.779Z,14.30
2023-08-05T01:49:55.452Z,14.11
2023-08-05T01:52:22.013Z,14.24
2023-08-05T01:54:48.645Z,14.34
2023-08-05T01:57:15.140Z,14.16
2023-08-05T01:59:41.686Z,14.23
2023-08-05T02:02:08.234Z,14.14
2023-08-05T02:04:35.262Z,14.05
2023-08-05T02:07:01.833Z,13.90
2023-08-05T02:09:28.327Z,13.83
2023-08-05T02:11:54.782Z,13.95
2023-08-05T02:14:21.293Z,13.93
2023-08-05T02:16:47.999Z,13.81
2023-08-05T02:19:14.691Z,13.62
2023-08-05T02:21:41.292Z,13.62
2023-08-05T02:24:11.284Z,13.72
2023-08-05T02:26:38.653Z,13.73
2023-08-05T02:29:05.205Z,13.63
2023-08-05T02:31:31.767Z,13.50
2023-08-05T02:33:58.300Z,13.38
2023-08-05T02:36:25.317Z,13.52
2023-08-05T02:38:51.818Z,13.43
2023-08-05T02:41:21.430Z,13.57
2023-08-05T02:43:47.996Z,13.52
2023-08-05T02:46:14.705Z,13.67
2023-08-05T02:48:41.337Z,13.75
2023-08-05T02:51:07.878Z,13.70
2023-08-05T02:53:34.469Z,13.69
2023-08-05T02:56:01.090Z,13.47
2023-08-05T02:58:27.838Z,13.48
2023-08-05T03:00:55.120Z,13.51
2023-08-05T03:03:21.759Z,13.48
2023-08-05T03:05:48.290Z,13.33
2023-08-05T03:08:14.836Z,13.34
2023-08-05T03:10:41.632Z,13.25
2023-08-05T03:13:09.247Z,13.17
2023-08-05T03:15:35.839Z,13.11
2023-08-05T03:18:02.471Z,13.15
2023-08-05T03:20:30.983Z,13.19
2023-08-05T03:22:58.011Z,13.19
2023-08-05T03:25:26.016Z,13.04
2023-08-05T03:27:52.595Z,13.00
2023-08-05T03:30:19.815Z,13.24
2023-08-05T03:32:49.557Z,13.19
2023-08-05T03:35:16.550Z,13.04
2023-08-05T03:37:43.194Z,12.96
2023-08-05T03:40:09.859Z,12.93
2023-08-05T03:42:36.756Z,12.95
2023-08-05T03:45:05.462Z,12.98
2023-08-05T03:47:33.086Z,13.03
2023-08-05T03:49:59.688Z,12.95
2023-08-05T03:52:27.758Z,12.75
2023-08-05T03:54:54.820Z,12.66
2023-08-05T03:57:21.342Z,12.57
2023-08-05T03:59:49.230Z,12.61
2023-08-05T04:02:16.041Z,12.62
2023-08-05T04:04:43.823Z,12.68
2023-08-05T04:07:10.761Z,12.65
2023-08-05T04:09:38.210Z,12.71
2023-08-05T04:12:10.348Z,12.69
2023-08-05T04:14:38.841Z,12.62
2023-08-05T04:17:05.727Z,12.58
2023-08-05T04:19:34.083Z,12.69
2023-08-05T04:22:02.092Z,12.77
2023-08-05T04:24:29.615Z,12.70
2023-08-05T04:26:56.172Z,12.71
2023-08-05T04:29:25.615Z,12.78
2023-08-05T04:31:53.667Z,12.72
2023-08-05T04:34:20.792Z,12.81
2023-08-05T04:36:51.609Z,12.78
2023-08-05T04:39:22.177Z,12.81
2023-08-05T04:41:49.174Z,12.88
2023-08-05T04:44:15.819Z,13.04
2023-08-05T04:46:42.449Z,13.36
2023-08-05T04:49:10.970Z,13.21
2023-08-05T04:51:38.099Z,12.89
2023-08-05T04:54:05.180Z,12.90
2023-08-05T04:56:31.916Z,12.84
2023-08-05T04:58:58.470Z,12.90
2023-08-05T05:01:25.115Z,12.85
2023-08-05T05:03:52.973Z,12.90
2023-08-05T05:06:19.654Z,13.05
2023-08-05T05:08:46.229Z,13.05
2023-08-05T05:11:12.949Z,13.07
2023-08-05T05:13:39.876Z,12.95
2023-08-05T05:16:07.434Z,13.08
2023-08-05T05:18:33.883Z,12.86
2023-08-05T05:21:01.791Z,13.09
2023-08-05T05:23:28.455Z,13.21
2023-08-05T05:25:55.046Z,13.11
2023-08-05T05:28:21.593Z,13.15
2023-08-05T05:30:48.125Z,13.34
2023-08-05T05:33:14.672Z,13.44
2023-08-05T05:35:41.189Z,13.51
2023-08-05T05:38:07.682Z,13.35
2023-08-05T05:40:34.188Z,13.50
2023-08-05T05:43:00.738Z,13.42
2023-08-05T05:45:29.376Z,13.50
2023-08-05T05:47:55.961Z,13.44
2023-08-05T05:50:22.906Z,13.33
2023-08-05T05:52:54.557Z,13.35
2023-08-05T05:55:21.731Z,13.40
2023-08-05T05:57:50.010Z,13.58
2023-08-05T06:00:16.697Z,13.65
2023-08-05T06:02:43.455Z,13.63
2023-08-05T06:05:13.259Z,13.84
2023-08-05T06:07:40.054Z,14.03
2023-08-05T06:10:07.244Z,14.23
2023-08-05T06:12:37.466Z,14.39
2023-08-05T06:15:07.727Z,14.45
2023-08-05T06:17:34.551Z,14.59
2023-08-05T06:20:01.029Z,14.83
2023-08-05T06:22:27.613Z,14.97
2023-08-05T06:24:54.124Z,15.40
2023-08-05T06:27:20.630Z,15.68
2023-08-05T06:29:49.967Z,16.12
2023-08-05T06:32:16.452Z,16.37
2023-08-05T06:34:45.169Z,16.03
2023-08-05T06:37:11.659Z,16.21
2023-08-05T06:39:39.175Z,16.64
2023-08-05T06:42:05.970Z,16.93
2023-08-05T06:44:32.608Z,16.85
2023-08-05T06:46:59.257Z,16.74
2023-08-05T06:49:28.967Z,16.61
2023-08-05T06:51:58.123Z,16.12
2023-08-05T06:54:25.100Z,16.45
2023-08-05T06:56:52.668Z,16.18
2023-08-05T06:59:19.312Z,16.49
2023-08-05T07:01:48.733Z,16.33
2023-08-05T07:04:15.781Z,16.01
2023-08-05T07:06:42.640Z,16.72
2023-08-05T07:09:09.156Z,16.55
2023-08-05T07:11:37.808Z,16.61
2023-08-05T07:14:04.625Z,16.55
2023-08-05T07:16:31.161Z,16.74
2023-08-05T07:18:59.972Z,16.94
2023-08-05T07:21:26.703Z,16.90
2023-08-05T07:23:55.280Z,17.42
2023-08-05T07:26:21.839Z,18.00
2023-08-05T07:28:49.957Z,18.60
2023-08-05T07:31:17.957Z,18.94
2023-08-05T07:33:47.399Z,18.94
2023-08-05T07:36:19.562Z,18.62
2023-08-05T07:38:48.028Z,18.81
2023-08-05T07:41:16.149Z,18.98
2023-08-05T07:43:43.630Z,19.12
2023-08-05T07:46:15.008Z,19.45
2023-08-05T07:48:42.084Z,19.49
2023-08-05T07:51:08.677Z,19.15
2023-08-05T07:53:38.218Z,19.50
2023-08-05T07:56:14.121Z,18.82
2023-08-05T07:58:43.239Z,19.32
2023-08-05T08:01:14.686Z,19.12
2023-08-05T08:03:46.514Z,19.55
2023-08-05T08:06:21.732Z,19.82
2023-08-05T08:08:52.696Z,19.34
2023-08-05T08:11:19.384Z,19.78
2023-08-05T08:13:45.885Z,19.62
2023-08-05T08:16:12.594Z,19.69
2023-08-05T08:18:39.296Z,19.65
2023-08-05T08:21:06.564Z,19.98
2023-08-05T08:23:33.176Z,19.84
2023-08-05T08:26:00.137Z,20.24
2023-08-05T08:28:27.487Z,19.67
2023-08-05T08:30:58.339Z,19.90
2023-08-05T08:33:26.029Z,19.61
2023-08-05T08:35:53.324Z,19.84
2023-08-05T08:38:20.330Z,20.04
2023-08-05T08:40:51.613Z,20.09
2023-08-05T08:43:20.048Z,20.22
2023-08-05T08:45:56.158Z,20.04
2023-08-05T08:48:25.016Z,20.10
2023-08-05T08:50:53.777Z,20.52
2023-08-05T08:53:23.865Z,20.79
2023-08-05T08:55:50.453Z,21.04
2023-08-05T08:58:17.067Z,21.21
2023-08-05T09:00:44.166Z,21.58
2023-08-05T09:03:11.090Z,21.30
2023-08-05T09:05:43.361Z,20.94
2023-08-05T09:08:10.627Z,20.61
2023-08-05T09:10:38.884Z,20.49
2023-08-05T09:13:08.007Z,20.32
2023-08-05T09:15:37.189Z,20.16
2023-08-05T09:18:08.817Z,19.86
2023-08-05T09:20:36.832Z,19.64
2023-08-05T09:23:05.963Z,19.36
2023-08-05T09:25:34.025Z,19.31
2023-08-05T09:28:05.270Z,19.17
2023-08-05T09:30:33.777Z,19.47
2023-08-05T09:33:04.048Z,19.85
2023-08-05T09:35:30.881Z,20.11
2023-08-05T09:37:57.607Z,20.46
2023-08-05T09:40:35.024Z,20.13
2023-08-05T09:43:04.090Z,19.75
2023-08-05T09:45:34.930Z,19.40
2023-08-05T09:48:08.658Z,19.37
2023-08-05T09:50:41.221Z,19.39
2023-08-05T09:53:09.553Z,19.71
2023-08-05T09:55:37.828Z,19.75
2023-08-05T09:58:08.873Z,19.52
2023-08-05T10:00:42.741Z,19.32
2023-08-05T10:03:16.717Z,19.30
2023-08-05T10:05:45.694Z,19.32
2023-08-05T10:08:14.191Z,19.46
2023-08-05T10:10:41.613Z,19.57
2023-08-05T10:13:17.222Z,19.46
2023-08-05T10:15:47.447Z,19.55
2023-08-05T10:18:16.154Z,19.53
2023-08-05T10:20:42.779Z,19.80
2023-08-05T10:23:10.780Z,19.82
2023-08-05T10:25:48.884Z,19.69
2023-08-05T10:28:24.866Z,19.35
2023-08-05T10:30:52.539Z,19.33
2023-08-05T10:33:19.677Z,19.49
2023-08-05T10:35:46.862Z,19.37
2023-08-05T10:38:15.975Z,19.39
2023-08-05T10:41:03.975Z,19.37
2023-08-05T10:43:39.903Z,19.28
2023-08-05T10:46:06.507Z,19.25
2023-08-05T10:48:46.015Z,19.31
2023-08-05T10:51:14.540Z,19.40
2023-08-05T10:53:47.406Z,19.72
2023-08-05T10:56:15.079Z,20.16
2023-08-05T10:58:50.224Z,20.29
2023-08-05T11:01:17.470Z,20.13
2023-08-05T11:03:56.014Z,20.14
2023-08-05T11:06:24.020Z,20.10
2023-08-05T11:08:50.706Z,20.00
2023-08-05T11:11:17.619Z,20.12
2023-08-05T11:13:46.160Z,20.14
2023-08-05T11:16:14.218Z,19.94
2023-08-05T11:18:42.414Z,19.91
2023-08-05T11:21:12.620Z,19.92
2023-08-05T11:23:40.894Z,19.85
2023-08-05T11:26:08.380Z,19.63
2023-08-05T11:28:35.298Z,19.70
2023-08-05T11:31:02.804Z,20.06
2023-08-05T11:33:32.927Z,20.56
2023-08-05T11:36:01.914Z,20.59
2023-08-05T11:38:30.843Z,20.36
2023-08-05T11:40:58.135Z,20.07
2023-08-05T11:43:25.211Z,20.26
2023-08-05T11:45:53.185Z,20.53
2023-08-05T11:48:26.205Z,20.96
2023-08-05T11:51:01.163Z,20.74
2023-08-05T11:53:28.476Z,20.81
2023-08-05T11:55:55.129Z,20.76
2023-08-05T11:58:24.606Z,21.26
2023-08-05T12:00:56.064Z,21.42
2023-08-05T12:03:22.693Z,21.36
2023-08-05T12:06:04.378Z,21.49
2023-08-05T12:08:45.491Z,21.44
2023-08-05T12:11:19.151Z,21.33
2023-08-05T12:13:45.872Z,21.31
2023-08-05T12:16:19.896Z,21.36
2023-08-05T12:18:53.254Z,21.77
2023-08-05T12:21:24.467Z,21.91
2023-08-05T12:23:51.076Z,21.78
2023-08-05T12:26:26.502Z,21.59
2023-08-05T12:28:52.986Z,21.55
2023-08-05T12:31:22.220Z,21.47
2023-08-05T12:33:48.801Z,21.55
2023-08-05T12:36:15.420Z,21.65
2023-08-05T12:38:42.118Z,21.58
2023-08-05T12:41:08.675Z,21.51
2023-08-05T12:43:35.254Z,21.47
2023-08-05T12:46:06.322Z,21.41
2023-08-05T12:48:35.079Z,21.31
2023-08-05T12:51:01.651Z,21.28
2023-08-05T12:53:30.628Z,21.36
2023-08-05T12:55:57.867Z,21.41
2023-08-05T12:58:24.446Z,21.65
2023-08-05T13:00:53.823Z,21.90
2023-08-05T13:03:20.659Z,22.00
2023-08-05T13:05:47.282Z,21.86
2023-08-05T13:08:16.616Z,21.95
2023-08-05T13:10:48.462Z,21.80
2023-08-05T13:13:15.171Z,21.95
2023-08-05T13:15:43.485Z,21.77
2023-08-05T13:18:13.328Z,21.82
2023-08-05T13:20:40.005Z,21.89
2023-08-05T13:23:06.697Z,21.99
2023-08-05T13:25:38.533Z,21.99
2023-08-05T13:28:07.334Z,22.10
2023-08-05T13:30:35.887Z,22.19
2023-08-05T13:33:05.085Z,22.03
2023-08-05T13:35:35.722Z,21.92
2023-08-05T13:38:02.431Z,21.91
2023-08-05T13:40:29.063Z,21.78
2023-08-05T13:42:55.621Z,21.80
2023-08-05T13:45:58.471Z,21.80
2023-08-05T13:48:29.117Z,21.80
2023-08-05T13:51:06.393Z,21.92
2023-08-05T13:53:36.545Z,21.97
2023-08-05T13:56:03.702Z,21.91
2023-08-05T13:58:30.458Z,22.05
2023-08-05T14:01:00.233Z,22.12
2023-08-05T14:03:29.780Z,22.07
2023-08-05T14:06:00.596Z,22.05
2023-08-05T14:08:30.538Z,21.90
2023-08-05T14:10:57.160Z,21.65
2023-08-05T14:13:26.761Z,21.44
2023-08-05T14:15:55.976Z,21.47
2023-08-05T14:18:23.233Z,21.40
2023-08-05T14:20:50.257Z,21.31
2023-08-05T14:23:23.344Z,21.14
2023-08-05T14:25:50.093Z,20.69
2023-08-05T14:28:18.871Z,20.01
2023-08-05T14:30:47.888Z,19.84
2023-08-05T14:33:14.472Z,19.73
2023-08-05T14:35:41.096Z,19.36
2023-08-05T14:38:10.537Z,18.86
2023-08-05T14:40:37.700Z,18.75
2023-08-05T14:43:05.191Z,18.88
2023-08-05T14:45:31.938Z,18.72
2023-08-05T14:47:59.490Z,18.45
2023-08-05T14:50:26.379Z,18.14
2023-08-05T14:52:55.898Z,18.31
2023-08-05T14:55:24.426Z,18.12
2023-08-05T14:57:51.064Z,18.08
2023-08-05T15:00:17.726Z,18.08
2023-08-05T15:02:45.667Z,17.86
2023-08-05T15:05:12.281Z,17.94
2023-08-05T15:07:41.486Z,17.77
2023-08-05T15:10:10.107Z,17.93
2023-08-05T15:12:36.961Z,17.86
2023-08-05T15:15:04.869Z,17.99
2023-08-05T15:17:33.644Z,18.13
2023-08-05T15:20:00.386Z,18.15
2023-08-05T15:22:29.739Z,18.13
2023-08-05T15:24:58.720Z,18.02
2023-08-05T15:27:25.348Z,18.16
2023-08-05T15:30:01.237Z,18.30
2023-08-05T15:32:30.913Z,18.37
2023-08-05T15:34:57.526Z,18.30
2023-08-05T15:37:24.067Z,18.51
2023-08-05T15:39:54.654Z,18.47
2023-08-05T15:42:21.187Z,18.38
2023-08-05T15:44:50.272Z,18.47
2023-08-05T15:47:17.812Z,18.61
2023-08-05T15:49:44.489Z,18.71
2023-08-05T15:52:13.128Z,18.62
2023-08-05T15:54:45.575Z,18.50
2023-08-05T15:57:12.118Z,18.60
2023-08-05T15:59:38.695Z,18.70
2023-08-05T16:02:06.378Z,18.72
2023-08-05T16:04:38.182Z,18.73
2023-08-05T16:07:06.167Z,18.73
2023-08-05T16:09:32.867Z,18.86
2023-08-05T16:11:59.442Z,18.79
2023-08-05T16:14:25.998Z,18.77
2023-08-05T16:16:52.833Z,18.59
2023-08-05T16:19:20.940Z,18.50
2023-08-05T16:21:48.411Z,18.49
2023-08-05T16:24:14.897Z,18.48
2023-08-05T16:26:44.604Z,18.49
2023-08-05T16:29:12.796Z,18.49
2023-08-05T16:31:42.274Z,18.50
2023-08-05T16:34:08.750Z,18.64
2023-08-05T16:36:37.222Z,18.58
2023-08-05T16:39:04.992Z,18.50
2023-08-05T16:41:31.496Z,18.64
2023-08-05T16:43:59.377Z,18.52
2023-08-05T16:46:38.955Z,18.53
2023-08-05T16:49:12.540Z,18.50
2023-08-05T16:51:39.164Z,18.52
2023-08-05T16:54:07.754Z,18.63
2023-08-05T16:56:37.384Z,18.60
2023-08-05T16:59:06.362Z,18.73
2023-08-05T17:01:34.104Z,18.58
2023-08-05T17:04:01.104Z,18.58
2023-08-05T17:06:27.672Z,18.58
2023-08-05T17:08:54.217Z,18.51
2023-08-05T17:11:20.719Z,18.61
2023-08-05T17:13:47.229Z,18.42
2023-08-05T17:16:13.730Z,18.52
2023-08-05T17:18:41.954Z,18.61
2023-08-05T17:21:09.517Z,18.63
2023-08-05T17:23:36.054Z,18.61
2023-08-05T17:26:02.664Z,18.52
2023-08-05T17:28:29.390Z,18.58
2023-08-05T17:30:56.090Z,18.50
2023-08-05T17:33:24.720Z,18.53
2023-08-05T17:35:53.225Z,18.39
2023-08-05T17:38:19.891Z,18.33
2023-08-05T17:40:46.507Z,18.32
2023-08-05T17:43:16.004Z,18.29
2023-08-05T17:45:42.499Z,18.21
2023-08-05T17:48:08.955Z,18.15
2023-08-05T17:50:35.461Z,18.08
2023-08-05T17:53:11.419Z,18.07
2023-08-05T17:55:41.704Z,18.11
2023-08-05T17:58:10.368Z,18.13
2023-08-05T18:00:40.873Z,18.09
2023-08-05T18:03:07.571Z,18.07
2023-08-05T18:05:34.146Z,17.99
2023-08-05T18:08:00.701Z,18.03
2023-08-05T18:10:27.279Z,17.94
2023-08-05T18:12:53.843Z,18.12
2023-08-05T18:15:20.471Z,18.16
2023-08-05T18:17:50.714Z,18.05
2023-08-05T18:20:17.927Z,18.04
2023-08-05T18:22:44.625Z,17.84
2023-08-05T18:25:11.306Z,17.81
2023-08-05T18:27:40.976Z,17.73
2023-08-05T18:30:08.070Z,17.54
2023-08-05T18:32:35.307Z,17.52
2023-08-05T18:35:01.936Z,17.55
2023-08-05T18:37:28.562Z,17.51
2023-08-05T18:39:55.073Z,17.41
2023-08-05T18:42:21.626Z,17.37
2023-08-05T18:44:48.350Z,17.34
2023-08-05T18:47:14.968Z,17.36
2023-08-05T18:49:41.702Z,17.35
2023-08-05T18:52:08.581Z,17.25
2023-08-05T18:54:35.233Z,17.34
2023-08-05T18:57:01.757Z,17.39
2023-08-05T18:59:28.338Z,17.30
2023-08-05T19:01:55.368Z,17.39
2023-08-05T19:04:25.223Z,17.40
2023-08-05T19:06:51.848Z,17.26
2023-08-05T19:09:18.423Z,17.26
2023-08-05T19:11:44.941Z,17.04
2023-08-05T19:14:11.489Z,17.25
2023-08-05T19:16:38.069Z,17.35
2023-08-05T19:19:05.240Z,17.28
2023-08-05T19:21:31.876Z,17.30
2023-08-05T19:23:58.374Z,17.31
2023-08-05T19:26:24.922Z,17.18
2023-08-05T19:28:51.500Z,17.25
2023-08-05T19:31:18.145Z,17.27
2023-08-05T19:33:44.872Z,17.32
2023-08-05T19:36:17.293Z,17.44
2023-08-05T19:38:44.874Z,17.32
2023-08-05T19:41:11.920Z,17.46
2023-08-05T19:43:42.350Z,17.40
2023-08-05T19:46:13.254Z,17.11
2023-08-05T19:48:43.550Z,16.97
2023-08-05T19:51:14.403Z,17.07
2023-08-05T19:53:43.299Z,17.11
2023-08-05T19:56:10.246Z,17.00
2023-08-05T19:58:36.832Z,17.07
2023-08-05T20:01:06.651Z,17.06
2023-08-05T20:03:34.472Z,17.12
2023-08-05T20:06:01.122Z,17.03
2023-08-05T20:08:27.716Z,17.18
2023-08-05T20:10:55.346Z,17.17
2023-08-05T20:13:23.538Z,17.11
2023-08-05T20:15:51.142Z,17.15
2023-08-05T20:18:19.513Z,17.19
2023-08-05T20:20:46.188Z,17.07
2023-08-05T20:23:13.538Z,16.97
2023-08-05T20:25:41.120Z,16.97
2023-08-05T20:28:07.682Z,16.83
2023-08-05T20:30:37.814Z,16.76
2023-08-05T20:33:04.826Z,16.73
2023-08-05T20:35:35.422Z,16.72
2023-08-05T20:38:02.371Z,16.71
2023-08-05T20:40:31.635Z,16.61
2023-08-05T20:42:58.226Z,16.55
2023-08-05T20:45:24.766Z,16.58
2023-08-05T20:47:52.348Z,16.48
2023-08-05T20:50:19.118Z,16.55
2023-08-05T20:52:45.817Z,16.54
2023-08-05T20:55:12.389Z,16.47
2023-08-05T20:57:39.068Z,16.44
2023-08-05T21:00:06.316Z,16.36
2023-08-05T21:02:33.046Z,16.38
2023-08-05T21:05:01.059Z,16.31
2023-08-05T21:07:31.274Z,16.47
2023-08-05T21:09:58.037Z,16.36
2023-08-05T21:12:24.688Z,16.36
2023-08-05T21:14:53.281Z,16.35
2023-08-05T21:17:19.911Z,16.34
2023-08-05T21:19:46.665Z,16.41
2023-08-05T21:22:13.271Z,16.42
2023-08-05T21:24:39.884Z,16.49
2023-08-05T21:27:06.660Z,16.31
2023-08-05T21:29:35.308Z,16.26
2023-08-05T21:32:02.038Z,16.26
2023-08-05T21:34:29.051Z,16.21
2023-08-05T21:36:55.701Z,16.20
2023-08-05T21:39:22.331Z,16.27
2023-08-05T21:41:48.936Z,16.29
2023-08-05T21:44:15.491Z,16.32
2023-08-05T21:46:42.245Z,16.22
2023-08-05T21:49:08.851Z,16.14
2023-08-05T21:51:35.398Z,16.28
2023-08-05T21:54:05.190Z,16.18
2023-08-05T21:56:31.755Z,16.20
2023-08-05T21:58:59.134Z,16.16
2023-08-05T22:01:25.707Z,16.16
2023-08-05T22:03:52.367Z,16.07
2023-08-05T22:06:18.933Z,16.13
2023-08-05T22:08:45.451Z,15.99
2023-08-05T22:11:12.076Z,15.96
2023-08-05T22:13:38.724Z,15.87
2023-08-05T22:16:05.348Z,15.80
2023-08-05T22:18:31.885Z,15.82
2023-08-05T22:21:01.600Z,15.85
2023-08-05T22:23:28.205Z,15.77
2023-08-05T22:25:54.762Z,15.70
2023-08-05T22:28:21.322Z,15.66
2023-08-05T22:30:55.752Z,15.65
2023-08-05T22:33:23.408Z,15.62
2023-08-05T22:35:52.255Z,15.61
2023-08-05T22:38:18.831Z,15.54
2023-08-05T22:40:45.476Z,15.70
2023-08-05T22:43:12.021Z,15.72
2023-08-05T22:45:38.547Z,15.63
2023-08-05T22:48:05.405Z,15.56
2023-08-05T22:50:32.192Z,15.56
2023-08-05T22:52:58.751Z,15.66
2023-08-05T22:55:25.378Z,15.62
2023-08-05T22:57:51.940Z,15.75
2023-08-05T23:00:18.444Z,15.66
2023-08-05T23:02:45.802Z,15.63
2023-08-05T23:05:12.405Z,15.53
2023-08-05T23:07:39.040Z,15.46
2023-08-05T23:10:05.791Z,15.45
2023-08-05T23:12:32.603Z,15.42
2023-08-05T23:14:59.135Z,15.44
2023-08-05T23:17:28.013Z,15.38
2023-08-05T23:19:54.558Z,15.31
2023-08-05T23:22:21.638Z,15.25
2023-08-05T23:24:48.144Z,15.31
2023-08-05T23:27:14.673Z,15.39
2023-08-05T23:29:41.136Z,15.45
2023-08-05T23:32:08.126Z,15.47
2023-08-05T23:34:36.859Z,15.40
2023-08-05T23:37:03.902Z,15.43
2023-08-05T23:39:30.837Z,15.47
2023-08-05T23:42:00.153Z,15.43
2023-08-05T23:44:26.794Z,15.36
2023-08-05T23:46:53.427Z,15.38
2023-08-05T23:49:21.057Z,15.35
2023-08-05T23:51:47.668Z,15.35
2023-08-05T23:54:15.673Z,15.29
2023-08-05T23:56:42.139Z,15.25
2023-08-05T23:59:08.641Z,15.23
